AXCGGARGarmin  id=247  GPS 72 Software Version 2.50|2140330771
HFDTE161010
HFPLTPilot:UNREGISTERED
HFTZOTimezone:2
HFSITSite:
HPGTYGliderType:
HPGIDGliderID:
HFDTM100DATUM:WGS-1984
HFCIDCOMPETITIONID:
HFCCLCOMPETITIONCLASS:
LXCG     ICON:C:\Program Files\CompeGPS\symbols\IconsPlay\cronos.ico
LXCG     COLOR:000119000
I00
B1508243736553N00044734WA0000000071
B1508303736554N00044731WA0000000071
B1508363736558N00044710WA0000000068
B1508423736561N00044689WA0000000069
B1508483736547N00044704WA0000000072
B1508543736545N00044742WA0000000074
B1509003736543N00044780WA0000000083
B1509063736540N00044806WA0000000084
B1509123736533N00044790WA0000000085
B1509183736543N00044766WA0000000090
B1509243736533N00044783WA0000000086
B1509303736531N00044816WA0000000092
B1509363736528N00044849WA0000000091
B1509423736519N00044871WA0000000098
B1509483736509N00044896WA0000000101
B1509543736495N00044918WA0000000106
B1510003736479N00044923WA0000000104
B1510063736493N00044898WA0000000100
B1510123736516N00044874WA0000000098
B1510183736539N00044851WA0000000098
B1510243736554N00044824WA0000000098
B1510303736549N00044801WA0000000102
B1510363736535N00044804WA0000000096
B1510423736528N00044836WA0000000096
B1510483736522N00044866WA0000000094
B1510543736509N00044892WA0000000093
B1511003736494N00044911WA0000000092
B1511063736478N00044926WA0000000094
B1511123736463N00044932WA0000000093
B1511183736482N00044913WA0000000090
B1511243736504N00044892WA0000000090
B1511303736523N00044866WA0000000092
B1511363736546N00044847WA0000000097
B1511423736560N00044824WA0000000097
B1511483736546N00044826WA0000000096
B1511543736536N00044854WA0000000100
B1512003736525N00044878WA0000000105
B1512063736515N00044900WA0000000107
B1512123736502N00044923WA0000000109
B1512183736487N00044935WA0000000115
B1512243736475N00044958WA0000000117
B1512303736461N00044971WA0000000119
B1512363736473N00044951WA0000000118
B1512423736494N00044931WA0000000115
B1512483736511N00044908WA0000000122
B1512543736527N00044890WA0000000124
B1513003736551N00044874WA0000000124
B1513063736571N00044852WA0000000124
B1513123736563N00044840WA0000000122
B1513183736550N00044861WA0000000125
B1513243736532N00044878WA0000000125
B1513303736514N00044901WA0000000127
B1513363736500N00044916WA0000000132
B1513423736487N00044938WA0000000129
B1513483736477N00044965WA0000000130
B1513543736461N00044972WA0000000136
B1514003736454N00044955WA0000000136
B1514063736478N00044939WA0000000133
B1514123736504N00044921WA0000000132
B1514183736523N00044896WA0000000132
B1514243736549N00044875WA0000000135
B1514303736565N00044853WA0000000134
B1514363736552N00044855WA0000000135
B1514423736541N00044870WA0000000133
B1514483736526N00044889WA0000000129
B1514543736511N00044910WA0000000127
B1515003736496N00044929WA0000000125
B1515063736484N00044955WA0000000125
B1515123736474N00044980WA0000000127
B1515183736466N00044972WA0000000125
B1515243736484N00044952WA0000000125
B1515303736477N00044941WA0000000125
B1515363736470N00044972WA0000000127
B1515423736457N00044976WA0000000127
B1515483736464N00044956WA0000000128
B1515543736482N00044935WA0000000127
B1516003736506N00044914WA0000000129
B1516063736522N00044893WA0000000132
B1516123736545N00044875WA0000000137
B1516183736550N00044859WA0000000138
B1516243736537N00044874WA0000000138
B1516303736522N00044887WA0000000137
B1516363736508N00044901WA0000000146
B1516423736494N00044905WA0000000147
B1516483736478N00044913WA0000000145
B1516543736460N00044920WA0000000142
B1517003736441N00044925WA0000000135
B1517063736422N00044930WA0000000128
B1517123736402N00044932WA0000000127
B1517183736380N00044935WA0000000127
B1517243736362N00044947WA0000000125
B1517303736348N00044970WA0000000121
B1517363736340N00045000WA0000000116
B1517423736329N00045027WA0000000119
B1517483736323N00045060WA0000000118
B1517543736310N00045078WA0000000116
B1518003736320N00045056WA0000000115
B1518063736333N00045030WA0000000115
B1518123736342N00045002WA0000000117
B1518183736352N00044979WA0000000119
B1518243736339N00044986WA0000000115
B1518303736332N00045015WA0000000118
B1518363736328N00045046WA0000000116
B1518423736321N00045075WA0000000116
B1518483736310N00045096WA0000000114
B1518543736307N00045074WA0000000111
B1519003736320N00045046WA0000000110
B1519063736332N00045020WA0000000117
B1519123736323N00045014WA0000000116
B1519183736322N00045049WA0000000116
B1519243736316N00045077WA0000000121
B1519303736306N00045074WA0000000119
B1519363736324N00045052WA0000000122
B1519423736335N00045029WA0000000123
B1519483736323N00045033WA0000000127
B1519543736324N00045068WA0000000127
B1520003736314N00045095WA0000000124
B1520063736320N00045076WA0000000124
B1520123736328N00045055WA0000000126
B1520183736326N00045033WA0000000125
B1520243736341N00045008WA0000000127
B1520303736359N00044983WA0000000123
B1520363736385N00044960WA0000000118
B1520423736413N00044941WA0000000115
B1520483736444N00044931WA0000000111
B1520543736475N00044926WA0000000113
B1521003736503N00044912WA0000000115
B1521063736524N00044890WA0000000115
B1521123736550N00044867WA0000000115
B1521183736561N00044841WA0000000118
B1521243736546N00044852WA0000000126
B1521303736533N00044871WA0000000126
B1521363736517N00044890WA0000000125
B1521423736505N00044916WA0000000124
B1521483736493N00044932WA0000000126
B1521543736482N00044955WA0000000126
B1522003736470N00044983WA0000000129
B1522063736459N00044978WA0000000129
B1522123736479N00044962WA0000000131
B1522183736494N00044941WA0000000132
B1522243736511N00044918WA0000000130
B1522303736533N00044897WA0000000132
B1522363736553N00044873WA0000000134
B1522423736566N00044850WA0000000134
B1522483736552N00044848WA0000000134
B1522543736540N00044867WA0000000136
B1523003736527N00044883WA0000000133
B1523063736515N00044907WA0000000131
B1523123736501N00044925WA0000000130
B1523183736488N00044947WA0000000129
B1523243736478N00044973WA0000000135
B1523303736466N00044972WA0000000137
B1523363736485N00044952WA0000000140
B1523423736503N00044927WA0000000137
B1523483736521N00044904WA0000000139
B1523543736539N00044882WA0000000135
B1524003736561N00044861WA0000000137
B1524063736559N00044844WA0000000141
B1524123736545N00044857WA0000000140
B1524183736532N00044880WA0000000144
B1524243736517N00044898WA0000000143
B1524303736503N00044918WA0000000143
B1524363736490N00044938WA0000000144
B1524423736480N00044961WA0000000145
B1524483736470N00044980WA0000000145
B1524543736456N00044986WA0000000140
B1525003736466N00044964WA0000000136
B1525063736487N00044942WA0000000138
B1525123736502N00044921WA0000000138
B1525183736519N00044900WA0000000142
B1525243736511N00044893WA0000000144
B1525303736501N00044921WA0000000144
B1525363736489N00044943WA0000000149
B1525423736480N00044965WA0000000151
B1525483736466N00044979WA0000000147
B1525543736452N00044979WA0000000147
B1526003736441N00044972WA0000000148
B1526063736436N00044958WA0000000143
B1526123736453N00044939WA0000000139
B1526183736478N00044923WA0000000138
B1526243736500N00044907WA0000000144
B1526303736519N00044888WA0000000145
B1526363736546N00044873WA0000000142
B1526423736564N00044851WA0000000140
B1526483736553N00044845WA0000000135
B1526543736542N00044870WA0000000135
B1527003736528N00044892WA0000000131
B1527063736512N00044913WA0000000132
B1527123736498N00044926WA0000000135
B1527183736483N00044939WA0000000137
B1527243736469N00044957WA0000000142
B1527303736458N00044976WA0000000139
B1527363736458N00044959WA0000000134
B1527423736471N00044934WA0000000133
B1527483736476N00044908WA0000000133
B1527543736486N00044885WA0000000135
B1528003736516N00044873WA0000000140
B1528063736542N00044860WA0000000147
B1528123736543N00044841WA0000000149
B1528183736527N00044851WA0000000155
B1528243736518N00044846WA0000000158
B1528303736504N00044848WA0000000152
B1528363736497N00044880WA0000000150
B1528423736489N00044913WA0000000151
B1528483736483N00044947WA0000000152
B1528543736470N00044971WA0000000159
B1529003736454N00044980WA0000000163
B1529063736441N00044977WA0000000164
B1529123736438N00044958WA0000000157
B1529183736440N00044937WA0000000153
B1529243736445N00044914WA0000000150
B1529303736460N00044888WA0000000150
B1529363736485N00044867WA0000000147
B1529423736515N00044853WA0000000140
B1529483736546N00044842WA0000000139
B1529543736541N00044826WA0000000144
B1530003736526N00044829WA0000000151
B1530063736512N00044847WA0000000152
B1530123736505N00044875WA0000000148
B1530183736499N00044905WA0000000143
B1530243736488N00044929WA0000000139
B1530303736480N00044956WA0000000145
B1530363736468N00044976WA0000000146
B1530423736455N00044978WA0000000147
B1530483736454N00044958WA0000000149
B1530543736452N00044937WA0000000152
B1531003736445N00044921WA0000000148
B1531063736429N00044919WA0000000146
B1531123736412N00044920WA0000000144
B1531183736390N00044931WA0000000146
B1531243736372N00044947WA0000000142
B1531303736358N00044971WA0000000142
B1531363736344N00044994WA0000000138
B1531423736338N00045028WA0000000134
B1531483736332N00045062WA0000000131
B1531543736321N00045086WA0000000128
B1532003736315N00045071WA0000000128
B1532063736319N00045046WA0000000131
B1532123736325N00045021WA0000000130
B1532183736337N00044995WA0000000129
B1532243736354N00044970WA0000000128
B1532303736376N00044950WA0000000126
B1532363736403N00044936WA0000000123
B1532423736432N00044928WA0000000121
B1532483736466N00044930WA0000000117
B1532543736495N00044921WA0000000116
B1533003736517N00044900WA0000000118
B1533063736542N00044880WA0000000122
B1533123736563N00044860WA0000000121
B1533183736565N00044837WA0000000120
B1533243736552N00044852WA0000000120
B1533303736541N00044876WA0000000120
B1533363736529N00044894WA0000000122
B1533423736516N00044909WA0000000123
B1533483736504N00044925WA0000000123
B1533543736490N00044937WA0000000123
B1534003736479N00044961WA0000000125
B1534063736465N00044989WA0000000127
B1534123736457N00044983WA0000000128
B1534183736476N00044968WA0000000131
B1534243736478N00044949WA0000000135
B1534303736469N00044939WA0000000135
B1534363736455N00044961WA0000000134
B1534423736443N00044982WA0000000136
B1534483736434N00044978WA0000000138
B1534543736434N00044960WA0000000133
B1535003736455N00044942WA0000000130
B1535063736477N00044921WA0000000129
B1535123736504N00044903WA0000000128
B1535183736528N00044881WA0000000127
B1535243736555N00044862WA0000000132
B1535303736560N00044838WA0000000137
B1535363736549N00044834WA0000000138
B1535423736536N00044848WA0000000139
B1535483736527N00044879WA0000000140
B1535543736512N00044898WA0000000141
B1536003736500N00044919WA0000000145
B1536063736488N00044943WA0000000143
B1536123736478N00044968WA0000000146
B1536183736467N00044983WA0000000151
B1536243736454N00044995WA0000000149
B1536303736446N00044985WA0000000148
B1536363736448N00044963WA0000000149
B1536423736455N00044938WA0000000149
B1536483736456N00044915WA0000000143
B1536543736469N00044888WA0000000139
B1537003736499N00044871WA0000000136
B1537063736532N00044863WA0000000133
B1537123736551N00044839WA0000000131
B1537183736541N00044834WA0000000127
B1537243736536N00044864WA0000000124
B1537303736527N00044888WA0000000126
B1537363736514N00044899WA0000000127
B1537423736502N00044913WA0000000124
B1537483736490N00044931WA0000000124
B1537543736480N00044952WA0000000125
B1538003736469N00044980WA0000000130
B1538063736455N00044989WA0000000128
B1538123736457N00044970WA0000000129
B1538183736478N00044953WA0000000127
B1538243736492N00044930WA0000000128
B1538303736511N00044906WA0000000129
B1538363736532N00044883WA0000000136
B1538423736551N00044865WA0000000134
B1538483736560N00044843WA0000000131
B1538543736547N00044842WA0000000130
B1539003736531N00044857WA0000000129
B1539063736518N00044873WA0000000134
B1539123736503N00044885WA0000000137
B1539183736491N00044901WA0000000137
B1539243736484N00044934WA0000000132
B1539303736477N00044967WA0000000136
B1539363736464N00044984WA0000000135
B1539423736456N00044973WA0000000140
B1539483736446N00044966WA0000000144
B1539543736434N00044960WA0000000140
B1540003736443N00044938WA0000000135
B1540063736472N00044923WA0000000131
B1540123736500N00044908WA0000000130
B1540183736525N00044889WA0000000128
B1540243736549N00044871WA0000000130
B1540303736561N00044846WA0000000133
B1540363736548N00044844WA0000000134
B1540423736539N00044872WA0000000136
B1540483736522N00044884WA0000000141
B1540543736507N00044891WA0000000144
B1541003736494N00044913WA0000000145
B1541063736485N00044942WA0000000146
B1541123736475N00044966WA0000000143
B1541183736467N00044959WA0000000138
B1541243736482N00044934WA0000000136
B1541303736495N00044911WA0000000138
B1541363736501N00044890WA0000000143
B1541423736491N00044884WA0000000143
B1541483736477N00044885WA0000000143
B1541543736465N00044894WA0000000142
B1542003736456N00044917WA0000000144
B1542063736446N00044914WA0000000140
B1542123736458N00044890WA0000000135
B1542183736493N00044881WA0000000129
B1542243736527N00044871WA0000000126
B1542303736556N00044854WA0000000125
B1542363736556N00044837WA0000000121
B1542423736548N00044860WA0000000119
B1542483736537N00044881WA0000000121
B1542543736525N00044895WA0000000122
B1543003736513N00044912WA0000000124
B1543063736500N00044922WA0000000127
B1543123736488N00044937WA0000000129
B1543183736481N00044965WA0000000133
B1543243736468N00044975WA0000000138
B1543303736456N00044971WA0000000136
B1543363736464N00044952WA0000000133
B1543423736492N00044937WA0000000131
B1543483736514N00044913WA0000000134
B1543543736515N00044894WA0000000134
B1544003736505N00044911WA0000000136
B1544063736496N00044933WA0000000132
B1544123736484N00044955WA0000000133
B1544183736473N00044980WA0000000138
B1544243736460N00044989WA0000000141
B1544303736449N00044986WA0000000143
B1544363736455N00044963WA0000000139
B1544423736478N00044941WA0000000141
B1544483736494N00044919WA0000000144
B1544543736506N00044894WA0000000142
B1545003736529N00044872WA0000000141
B1545063736535N00044846WA0000000144
B1545123736531N00044825WA0000000150
B1545183736534N00044801WA0000000149
B1545243736541N00044773WA0000000148
B1545303736551N00044747WA0000000143
B1545363736562N00044718WA0000000140
B1545423736572N00044689WA0000000137
B1545483736593N00044662WA0000000128
B1545543736624N00044643WA0000000121
B1546003736654N00044627WA0000000125
B1546063736669N00044599WA0000000125
B1546123736683N00044573WA0000000127
B1546183736700N00044551WA0000000126
B1546243736711N00044531WA0000000127
B1546303736725N00044511WA0000000125
B1546363736750N00044494WA0000000127
B1546423736768N00044471WA0000000128
B1546483736787N00044446WA0000000136
B1546543736797N00044423WA0000000146
B1547003736796N00044410WA0000000148
B1547063736801N00044390WA0000000143
B1547123736813N00044365WA0000000137
B1547183736804N00044375WA0000000133
B1547243736804N00044405WA0000000132
B1547303736795N00044423WA0000000135
B1547363736784N00044444WA0000000135
B1547423736771N00044468WA0000000136
B1547483736757N00044487WA0000000139
B1547543736743N00044501WA0000000140
B1548003736729N00044512WA0000000136
B1548063736714N00044525WA0000000135
B1548123736701N00044542WA0000000136
B1548183736689N00044571WA0000000135
B1548243736674N00044577WA0000000139
B1548303736668N00044565WA0000000144
B1548363736655N00044566WA0000000140
B1548423736640N00044581WA0000000137
B1548483736624N00044597WA0000000140
B1548543736609N00044616WA0000000134
B1549003736596N00044639WA0000000127
B1549063736585N00044660WA0000000124
B1549123736570N00044678WA0000000120
B1549183736560N00044708WA0000000115
B1549243736555N00044743WA0000000110
B1549303736550N00044778WA0000000113
B1549363736553N00044813WA0000000114
B1549423736547N00044841WA0000000120
B1549483736538N00044860WA0000000119
B1549543736526N00044881WA0000000119
B1550003736513N00044899WA0000000120
B1550063736500N00044914WA0000000123
B1550123736489N00044930WA0000000127
B1550183736481N00044953WA0000000126
B1550243736473N00044978WA0000000129
B1550303736462N00044993WA0000000130
B1550363736467N00044974WA0000000131
B1550423736465N00044958WA0000000135
B1550483736454N00044949WA0000000134
B1550543736438N00044951WA0000000138
B1551003736422N00044952WA0000000138
B1551063736406N00044956WA0000000136
B1551123736389N00044963WA0000000131
B1551183736372N00044970WA0000000129
B1551243736356N00044982WA0000000127
B1551303736344N00045003WA0000000125
B1551363736333N00045026WA0000000125
B1551423736329N00045059WA0000000126
B1551483736325N00045090WA0000000129
B1551543736317N00045114WA0000000129
B1552003736309N00045101WA0000000125
B1552063736319N00045076WA0000000125
B1552123736329N00045048WA0000000127
B1552183736333N00045024WA0000000128
B1552243736335N00045002WA0000000127
B1552303736360N00044979WA0000000126
B1552363736393N00044963WA0000000119
B1552423736423N00044947WA0000000112
B1552483736453N00044933WA0000000109
B1552543736483N00044918WA0000000110
B1553003736510N00044899WA0000000113
B1553063736538N00044878WA0000000114
B1553123736561N00044856WA0000000121
B1553183736564N00044836WA0000000124
B1553243736552N00044857WA0000000128
B1553303736537N00044868WA0000000132
B1553363736524N00044886WA0000000132
B1553423736509N00044905WA0000000133
B1553483736498N00044923WA0000000135
B1553543736486N00044945WA0000000136
B1554003736476N00044971WA0000000139
B1554063736465N00044965WA0000000138
B1554123736476N00044943WA0000000139
B1554183736493N00044918WA0000000140
B1554243736511N00044894WA0000000145
B1554303736527N00044872WA0000000150
B1554363736521N00044866WA0000000154
B1554423736514N00044887WA0000000156
B1554483736504N00044905WA0000000157
B1554543736494N00044922WA0000000156
B1555003736485N00044946WA0000000156
B1555063736472N00044964WA0000000156
B1555123736463N00044963WA0000000157
B1555183736473N00044940WA0000000157
B1555243736493N00044919WA0000000156
B1555303736518N00044901WA0000000153
B1555363736540N00044880WA0000000155
B1555423736549N00044856WA0000000156
B1555483736545N00044843WA0000000156
B1555543736544N00044820WA0000000155
B1556003736545N00044794WA0000000152
B1556063736551N00044765WA0000000149
B1556123736564N00044737WA0000000143
B1556183736577N00044708WA0000000140
B1556243736593N00044682WA0000000132
B1556303736616N00044657WA0000000125
B1556363736638N00044631WA0000000121
B1556423736663N00044607WA0000000118
B1556483736678N00044581WA0000000116
B1556543736687N00044555WA0000000116
B1557003736704N00044529WA0000000121
B1557063736696N00044522WA0000000119
B1557123736693N00044554WA0000000123
B1557183736684N00044569WA0000000121
B1557243736692N00044545WA0000000122
B1557303736708N00044523WA0000000126
B1557363736732N00044502WA0000000125
B1557423736753N00044483WA0000000124
B1557483736771N00044460WA0000000124
B1557543736792N00044437WA0000000128
B1558003736805N00044409WA0000000129
B1558063736813N00044379WA0000000130
B1558123736805N00044376WA0000000129
B1558183736802N00044402WA0000000132
B1558243736797N00044429WA0000000132
B1558303736791N00044450WA0000000134
B1558363736782N00044466WA0000000136
B1558423736772N00044482WA0000000136
B1558483736761N00044501WA0000000137
B1558543736749N00044509WA0000000136
B1559003736737N00044508WA0000000135
B1559063736721N00044513WA0000000137
B1559123736705N00044522WA0000000143
B1559183736695N00044532WA0000000135
B1559243736693N00044562WA0000000130
B1559303736689N00044590WA0000000126
B1559363736682N00044585WA0000000121
B1559423736698N00044559WA0000000119
B1559483736701N00044537WA0000000120
B1559543736690N00044547WA0000000122
B1600003736692N00044578WA0000000122
B1600063736685N00044583WA0000000118
B1600123736694N00044559WA0000000119
B1600183736698N00044537WA0000000120
B1600243736691N00044554WA0000000121
B1600303736695N00044587WA0000000120
B1600363736686N00044594WA0000000116
B1600423736693N00044570WA0000000114
B1600483736696N00044549WA0000000113
B1600543736699N00044526WA0000000113
B1601003736690N00044538WA0000000114
B1601063736692N00044571WA0000000114
B1601123736689N00044603WA0000000112
B1601183736675N00044613WA0000000111
B1601243736661N00044613WA0000000108
B1601303736645N00044618WA0000000105
B1601363736628N00044628WA0000000101
B1601423736612N00044638WA0000000098
B1601483736597N00044649WA0000000096
B1601543736584N00044665WA0000000090
B1602003736571N00044686WA0000000091
B1602063736564N00044713WA0000000090
B1602123736557N00044736WA0000000088
B1602183736548N00044759WA0000000088
B1602243736542N00044780WA0000000087
B1602303736539N00044805WA0000000085
B1602363736529N00044803WA0000000081
B1602423736540N00044772WA0000000082
B1602483736550N00044741WA0000000084
B1602543736540N00044736WA0000000082
B1603003736544N00044772WA0000000087
B1603063736546N00044800WA0000000088
B1603123736542N00044822WA0000000087
B1603183736533N00044841WA0000000087
B1603243736524N00044862WA0000000090
B1603303736512N00044882WA0000000093
B1603363736500N00044895WA0000000095
B1603423736488N00044903WA0000000094
B1603483736492N00044879WA0000000092
B1603543736522N00044862WA0000000092
B1604003736546N00044841WA0000000092
B1604063736553N00044813WA0000000093
B1604123736544N00044816WA0000000090
B1604183736537N00044844WA0000000093
B1604243736531N00044868WA0000000099
B1604303736523N00044883WA0000000102
B1604363736516N00044900WA0000000106
B1604423736507N00044911WA0000000110
B1604483736521N00044888WA0000000112
B1604543736545N00044866WA0000000112
B1605003736562N00044839WA0000000116
B1605063736555N00044825WA0000000118
B1605123736550N00044850WA0000000122
B1605183736541N00044869WA0000000120
B1605243736531N00044887WA0000000122
B1605303736520N00044900WA0000000124
B1605363736508N00044915WA0000000124
B1605423736494N00044925WA0000000128
B1605483736486N00044947WA0000000130
B1605543736478N00044967WA0000000135
B1606003736470N00044985WA0000000136
B1606063736463N00044981WA0000000132
B1606123736481N00044954WA0000000134
B1606183736490N00044926WA0000000137
B1606243736486N00044907WA0000000137
B1606303736478N00044917WA0000000131
B1606363736478N00044947WA0000000130
B1606423736475N00044971WA0000000138
B1606483736466N00044978WA0000000135
B1606543736480N00044953WA0000000134
B1607003736502N00044925WA0000000133
B1607063736522N00044897WA0000000133
B1607123736549N00044869WA0000000129
B1607183736564N00044840WA0000000127
B1607243736554N00044847WA0000000126
B1607303736541N00044861WA0000000126
B1607363736529N00044875WA0000000124
B1607423736520N00044894WA0000000123
B1607483736510N00044911WA0000000122
B1607543736498N00044923WA0000000123
B1608003736488N00044941WA0000000124
B1608063736482N00044958WA0000000126
B1608123736475N00044977WA0000000128
B1608183736465N00044988WA0000000129
B1608243736456N00044978WA0000000124
B1608303736448N00044963WA0000000120
B1608363736458N00044933WA0000000116
B1608423736491N00044910WA0000000116
B1608483736521N00044884WA0000000119
B1608543736545N00044860WA0000000123
B1609003736563N00044834WA0000000123
B1609063736553N00044843WA0000000125
B1609123736545N00044863WA0000000126
B1609183736533N00044879WA0000000129
B1609243736521N00044894WA0000000132
B1609303736511N00044905WA0000000134
B1609363736502N00044918WA0000000133
B1609423736493N00044933WA0000000130
B1609483736486N00044949WA0000000133
B1609543736478N00044967WA0000000136
B1610003736470N00044964WA0000000140
B1610063736459N00044955WA0000000137
B1610123736445N00044946WA0000000133
B1610183736431N00044940WA0000000129
B1610243736416N00044938WA0000000121
B1610303736402N00044938WA0000000115
B1610363736397N00044922WA0000000104
B1610423736432N00044909WA0000000095
B1610483736470N00044908WA0000000091
B1610543736500N00044882WA0000000088
B1611003736516N00044849WA0000000086
B1611063736525N00044816WA0000000086
B1611123736535N00044783WA0000000084
B1611183736550N00044750WA0000000085
B1611243736554N00044720WA0000000080
B1611303736546N00044731WA0000000078
B1611363736547N00044758WA0000000078
B1611423736544N00044778WA0000000078
B1611483736541N00044800WA0000000078
B1611543736535N00044818WA0000000078
B1612003736530N00044838WA0000000078
B1612063736523N00044852WA0000000079
B1612123736514N00044866WA0000000081
B1612183736505N00044881WA0000000084
B1612243736496N00044873WA0000000079
B1612303736521N00044847WA0000000077
B1612363736530N00044815WA0000000077
B1612423736537N00044783WA0000000075
B1612483736537N00044753WA0000000076
B1612543736551N00044717WA0000000074
B1613003736567N00044687WA0000000074
B1613063736586N00044658WA0000000070
B1613123736614N00044636WA0000000065
B1613183736623N00044607WA0000000058
B1613243736607N00044596WA0000000054
B1613303736592N00044589WA0000000049
B1613363736576N00044583WA0000000041
B1613423736562N00044575WA0000000033
B1613483736546N00044565WA0000000027
B1613543736532N00044556WA0000000024
B1614003736529N00044545WA0000000016
LXCG     VERSION:5.7
GAA23DE95B33B498B50FCB03BE43C111823350AA5103CB3BBF446AD478A2D1172B50FE
GDCA0A535F53C72AEBD080C79C252F94B66671779EDBD5885D9F03C73A1F3C34AD8F
G4DA25B2646BE0D8D87C87EAFED1D41595AEF61F1CB07B7E0520AF2E78652C42CC90
GC77EEA80767116FDF56176021430A71A0FC84FAD6A3C9D7FBD440DBB37993